createdAt,value
2022-12-12T00:03:28.665Z,20.20
2022-12-12T00:08:32.978Z,20.18
2022-12-12T00:13:35.917Z,20.24
2022-12-12T00:18:38.847Z,20.25
2022-12-12T00:23:43.099Z,20.24
2022-12-12T00:28:45.929Z,20.24
2022-12-12T00:33:50.123Z,20.19
2022-12-12T00:38:54.428Z,20.18
2022-12-12T00:43:57.176Z,20.17
2022-12-12T00:49:00.020Z,20.14
2022-12-12T00:54:04.333Z,20.13
2022-12-12T00:59:07.214Z,20.09
2022-12-12T01:04:10.069Z,20.08
2022-12-12T01:09:14.948Z,20.00
2022-12-12T01:14:17.883Z,19.99
2022-12-12T01:19:20.659Z,19.95
2022-12-12T01:24:24.839Z,19.86
2022-12-12T01:29:27.712Z,19.84
2022-12-12T01:34:30.698Z,19.79
2022-12-12T01:39:34.796Z,19.74
2022-12-12T01:44:39.529Z,19.66
2022-12-12T01:49:42.587Z,19.63
2022-12-12T01:54:48.293Z,19.57
2022-12-12T01:59:51.025Z,19.52
2022-12-12T02:04:53.795Z,19.49
2022-12-12T02:09:57.957Z,19.46
2022-12-12T02:15:00.742Z,19.40
2022-12-12T02:20:25.316Z,19.34
2022-12-12T02:25:56.145Z,19.29
2022-12-12T02:31:11.412Z,19.25
2022-12-12T02:36:16.028Z,19.18
2022-12-12T02:41:23.569Z,19.17
2022-12-12T02:46:31.235Z,19.12
2022-12-12T02:51:34.308Z,19.10
2022-12-12T02:56:47.895Z,19.03
2022-12-12T03:02:13.355Z,18.99
2022-12-12T03:07:37.119Z,18.90
2022-12-12T03:12:42.248Z,18.93
2022-12-12T03:17:49.538Z,18.92
2022-12-12T03:22:54.078Z,18.83
2022-12-12T03:27:59.818Z,18.83
2022-12-12T03:33:05.399Z,18.84
2022-12-12T03:38:10.225Z,18.79
2022-12-12T03:43:14.444Z,18.76
2022-12-12T03:48:20.126Z,18.72
2022-12-12T03:53:25.056Z,18.67
2022-12-12T03:58:28.781Z,18.60
2022-12-12T04:03:39.490Z,18.57
2022-12-12T04:09:02.410Z,18.53
2022-12-12T04:14:10.364Z,18.50
2022-12-12T04:19:35.870Z,18.48
2022-12-12T04:24:42.310Z,18.47
2022-12-12T04:29:47.518Z,18.46
2022-12-12T04:34:53.269Z,18.45
2022-12-12T04:39:57.717Z,18.45
2022-12-12T04:45:04.687Z,18.43
2022-12-12T04:50:10.590Z,18.41
2022-12-12T04:55:14.959Z,18.41
2022-12-12T05:00:20.244Z,18.37
2022-12-12T05:05:27.408Z,18.38
2022-12-12T05:10:30.186Z,18.36
2022-12-12T05:15:33.769Z,18.36
2022-12-12T05:20:38.304Z,18.33
2022-12-12T05:25:41.170Z,18.33
2022-12-12T05:30:43.950Z,18.33
2022-12-12T05:35:48.105Z,18.33
2022-12-12T05:40:50.934Z,18.29
2022-12-12T05:45:53.822Z,18.31
2022-12-12T05:50:58.061Z,18.26
2022-12-12T05:56:00.849Z,18.26
2022-12-12T06:01:04.379Z,18.28
2022-12-12T06:06:08.751Z,18.25
2022-12-12T06:11:11.517Z,18.24
2022-12-12T06:16:16.176Z,18.23
2022-12-12T06:21:20.583Z,18.23
2022-12-12T06:26:23.495Z,18.20
2022-12-12T06:31:26.270Z,18.21
2022-12-12T06:36:30.508Z,18.21
2022-12-12T06:41:33.383Z,18.19
2022-12-12T06:46:36.382Z,18.19
2022-12-12T06:51:44.131Z,18.17
2022-12-12T06:56:48.729Z,18.16
2022-12-12T07:01:51.674Z,18.14
2022-12-12T07:06:56.028Z,18.13
2022-12-12T07:11:58.845Z,18.10
2022-12-12T07:17:01.552Z,18.09
2022-12-12T07:22:10.182Z,18.08
2022-12-12T07:27:17.039Z,18.06
2022-12-12T07:32:24.193Z,18.05
2022-12-12T07:37:28.295Z,18.04
2022-12-12T07:42:31.120Z,18.04
2022-12-12T07:47:33.895Z,18.02
2022-12-12T07:52:38.078Z,18.01
2022-12-12T07:57:41.368Z,18.01
2022-12-12T08:02:46.008Z,13.48
2022-12-12T08:07:50.161Z,11.33
2022-12-12T08:12:52.988Z,12.93
2022-12-12T08:17:55.766Z,14.57
2022-12-12T08:23:00.013Z,15.69
2022-12-12T08:28:02.799Z,16.34
2022-12-12T08:33:08.199Z,16.80
2022-12-12T08:38:12.513Z,17.16
2022-12-12T08:43:15.323Z,17.45
2022-12-12T08:48:18.526Z,17.67
2022-12-12T08:53:22.683Z,17.87
2022-12-12T08:58:26.572Z,18.07
2022-12-12T09:03:29.901Z,18.25
2022-12-12T09:08:34.521Z,18.40
2022-12-12T09:13:37.742Z,18.40
2022-12-12T09:18:47.802Z,18.60
2022-12-12T09:23:52.679Z,18.72
2022-12-12T09:28:55.458Z,18.82
2022-12-12T09:33:58.241Z,18.92
2022-12-12T09:39:02.370Z,18.99
2022-12-12T09:44:07.258Z,19.04
2022-12-12T09:49:15.362Z,19.13
2022-12-12T09:54:21.601Z,19.18
2022-12-12T09:59:28.462Z,19.24
2022-12-12T10:04:36.337Z,19.29
2022-12-12T10:09:47.422Z,19.38
2022-12-12T10:14:52.171Z,19.41
2022-12-12T10:19:55.964Z,19.48
2022-12-12T10:25:07.559Z,19.54
2022-12-12T10:30:16.698Z,19.60
2022-12-12T10:35:26.479Z,19.56
2022-12-12T10:40:45.513Z,19.56
2022-12-12T10:45:54.082Z,19.60
2022-12-12T10:50:58.791Z,19.65
2022-12-12T10:56:05.123Z,19.69
2022-12-12T11:01:12.893Z,19.69
2022-12-12T11:06:16.462Z,19.72
2022-12-12T11:11:21.516Z,19.80
2022-12-12T11:16:25.737Z,19.83
2022-12-12T11:21:29.212Z,19.84
2022-12-12T11:26:38.991Z,19.88
2022-12-12T11:31:41.805Z,19.93
2022-12-12T11:36:44.584Z,19.99
2022-12-12T11:41:59.768Z,20.05
2022-12-12T11:47:24.914Z,20.06
2022-12-12T11:52:28.553Z,20.10
2022-12-12T11:57:44.699Z,20.13
2022-12-12T12:03:19.955Z,20.16
2022-12-12T12:08:30.731Z,20.18
2022-12-12T12:13:44.774Z,20.21
2022-12-12T12:18:54.819Z,20.21
2022-12-12T12:24:04.467Z,20.22
2022-12-12T12:29:17.354Z,20.22
2022-12-12T12:34:22.960Z,20.22
2022-12-12T12:39:35.961Z,20.20
2022-12-12T12:44:45.512Z,20.17
2022-12-12T12:49:50.617Z,20.17
2022-12-12T12:54:53.525Z,20.13
2022-12-12T12:59:58.873Z,20.08
2022-12-12T13:05:06.936Z,20.03
2022-12-12T13:10:17.050Z,20.09
2022-12-12T13:15:22.943Z,20.07
2022-12-12T13:20:26.355Z,20.08
2022-12-12T13:25:34.255Z,20.10
2022-12-12T13:30:44.624Z,20.13
2022-12-12T13:35:49.126Z,20.09
2022-12-12T13:40:56.849Z,20.11
2022-12-12T13:46:01.480Z,20.08
2022-12-12T13:51:36.273Z,20.08
2022-12-12T13:56:39.360Z,20.06
2022-12-12T14:01:43.665Z,20.03
2022-12-12T14:06:46.471Z,20.02
2022-12-12T14:11:49.319Z,20.02
2022-12-12T14:16:55.009Z,20.05
2022-12-12T14:21:58.037Z,20.03
2022-12-12T14:27:00.982Z,20.02
2022-12-12T14:32:17.673Z,19.98
2022-12-12T14:37:34.817Z,19.92
2022-12-12T14:43:19.938Z,19.95
2022-12-12T14:48:18.165Z,19.92
2022-12-12T14:53:22.942Z,19.90
2022-12-12T14:58:27.771Z,19.96
2022-12-12T15:03:33.429Z,20.00
2022-12-12T15:08:36.527Z,20.00
2022-12-12T15:13:39.364Z,19.95
2022-12-12T15:18:43.580Z,19.90
2022-12-12T15:23:46.516Z,19.89
2022-12-12T15:28:49.304Z,19.91
2022-12-12T15:33:53.861Z,19.91
2022-12-12T15:39:13.681Z,19.96
2022-12-12T15:44:18.304Z,20.01
2022-12-12T15:49:39.753Z,20.14
2022-12-12T15:54:49.854Z,20.25
2022-12-12T15:59:54.533Z,20.30
2022-12-12T16:05:07.280Z,20.37
2022-12-12T16:10:23.488Z,20.39
2022-12-12T16:15:34.911Z,20.57
2022-12-12T16:20:43.843Z,20.59
2022-12-12T16:25:46.678Z,20.66
2022-12-12T16:30:52.711Z,20.69
2022-12-12T16:35:57.401Z,20.66
2022-12-12T16:41:00.745Z,20.65
2022-12-12T16:46:03.836Z,20.65
2022-12-12T16:51:08.625Z,20.57
2022-12-12T16:56:11.632Z,20.60
2022-12-12T17:01:17.021Z,20.58
2022-12-12T17:06:21.271Z,20.71
2022-12-12T17:11:24.088Z,20.57
2022-12-12T17:16:28.069Z,20.52
2022-12-12T17:21:32.776Z,20.60
2022-12-12T17:26:36.246Z,20.57
2022-12-12T17:31:39.424Z,20.62
2022-12-12T17:36:43.583Z,20.60
2022-12-12T17:41:46.417Z,20.64
2022-12-12T17:46:49.327Z,20.68
2022-12-12T17:51:56.253Z,20.69
2022-12-12T17:56:59.022Z,20.73
2022-12-12T18:02:01.820Z,20.73
2022-12-12T18:07:06.216Z,20.81
2022-12-12T18:12:09.693Z,20.70
2022-12-12T18:17:12.457Z,20.65
2022-12-12T18:22:17.009Z,20.63
2022-12-12T18:27:19.943Z,20.61
2022-12-12T18:32:22.981Z,20.60
2022-12-12T18:37:27.150Z,20.57
2022-12-12T18:42:30.009Z,20.56
2022-12-12T18:47:33.438Z,20.51
2022-12-12T18:52:37.687Z,20.53
2022-12-12T18:57:40.544Z,20.52
2022-12-12T19:02:43.344Z,20.59
2022-12-12T19:07:47.903Z,20.63
2022-12-12T19:12:50.726Z,20.65
2022-12-12T19:17:55.604Z,20.69
2022-12-12T19:22:59.923Z,20.67
2022-12-12T19:28:02.990Z,20.68
2022-12-12T19:33:06.100Z,20.66
2022-12-12T19:38:10.392Z,20.66
2022-12-12T19:43:13.312Z,20.67
2022-12-12T19:48:16.167Z,20.66
2022-12-12T19:53:20.504Z,20.69
2022-12-12T19:58:23.744Z,20.66
2022-12-12T20:03:26.687Z,20.67
2022-12-12T20:08:31.032Z,20.63
2022-12-12T20:13:34.088Z,20.66
2022-12-12T20:18:36.969Z,20.62
2022-12-12T20:23:46.896Z,20.65
2022-12-12T20:28:50.261Z,20.66
2022-12-12T20:33:54.940Z,20.65
2022-12-12T20:38:59.836Z,20.62
2022-12-12T20:44:02.953Z,20.60
2022-12-12T20:49:09.200Z,20.63
2022-12-12T20:54:14.653Z,20.62
2022-12-12T20:59:17.384Z,20.64
2022-12-12T21:04:20.761Z,20.62
2022-12-12T21:09:26.851Z,20.62
2022-12-12T21:14:30.957Z,20.63
2022-12-12T21:19:33.970Z,20.58
2022-12-12T21:24:38.598Z,20.59
2022-12-12T21:29:41.550Z,20.62
2022-12-12T21:34:44.344Z,20.63
2022-12-12T21:39:50.714Z,20.61
2022-12-12T21:44:53.696Z,20.62
2022-12-12T21:49:56.441Z,20.51
2022-12-12T21:55:00.647Z,20.62
2022-12-12T22:00:04.346Z,20.59
2022-12-12T22:05:15.816Z,20.61
2022-12-12T22:10:20.423Z,20.62
2022-12-12T22:15:23.468Z,20.66
2022-12-12T22:20:26.308Z,20.67
2022-12-12T22:25:30.515Z,20.60
2022-12-12T22:30:33.458Z,20.61
2022-12-12T22:35:36.261Z,20.62
2022-12-12T22:40:40.495Z,20.52
2022-12-12T22:45:43.273Z,20.35
2022-12-12T22:50:46.164Z,20.40
2022-12-12T22:55:50.391Z,20.41
2022-12-12T23:00:53.622Z,20.41
2022-12-12T23:06:03.137Z,20.44
2022-12-12T23:11:08.877Z,20.38
2022-12-12T23:16:13.165Z,20.50
2022-12-12T23:21:17.850Z,20.49
2022-12-12T23:26:23.402Z,20.52
2022-12-12T23:31:27.686Z,20.51
2022-12-12T23:36:30.556Z,20.45
2022-12-12T23:41:34.927Z,20.47
2022-12-12T23:46:37.694Z,20.39
2022-12-12T23:51:42.058Z,20.42
2022-12-12T23:56:46.357Z,20.40
